Terminal Aerodrome Forecast
Issued by NWS

Home | Current Version | Previous Version | Text Only | Print | Product List | Glossary On
Versions: 1 2 3 4 5 6 7 8 9 10 11 12 13
000
FTPQ31 PGUM 302320
TAFGUM
TAF

TAF
PTKK 302320Z 0100/0124 VRB07KT P6SM VCSH SCT016 SCT040 BKN120
      TEMPO 0100/0104 5SM SHRA SCT014 BKN025=

USA.gov is the U.S. government's official web portal to all federal, state and local government web resources and services.